Pleasant Plain, Indiana
Current Conditions -  °F | °C
As of 3:35 AM on Saturday 29 Nov 2014 (Local Time) from KHHG Reporting Station
Clear Clear  
Wind Chill: 26°   Ceiling: Unl
Heat Index: 31°   Visibility: 10mi
Dew Point: 23°   Wind: 5mph
Humidity: 71%   Direction: 150°SSE
Pressure: 29.96"   Gusts: NA
Location:  40.6897°N, 85.3916°W
Report Text: KHHG 290835Z AUTO 15004KT 10SM CLR 00/M05 A2996 RMK AO2 T10051052
Loading
Personal Weather Stations






























Interactive Weather Map New forecast layout! Learn more

10-Day Weather Forecast

Advertisements
Track Severe Weather on mobile